Time;durP1;ratioP1;P1;durP2;ratioP2;P2;SDS_P1;SDS_P2;PMS_P1;PMS_P2;Temp;Humidity;BMP_temperature;BMP_pressure;BME280_temperature;BME280_humidity;BME280_pressure;Samples;Min_cycle;Max_cycle;Signal;HPM_P1;HPM_P2
2022/11/27 00:02:24;;;;;;;20.13;11.00;;;;;;;0.96;71.00;95746.22;5061157;28;20035;-66
2022/11/27 00:04:49;;;;;;;18.38;9.90;;;;;;;0.97;70.88;95746.16;5098065;28;20043;-66
2022/11/27 00:07:15;;;;;;;17.30;10.38;;;;;;;0.99;70.79;95751.22;5091494;28;20024;-66
2022/11/27 00:09:40;;;;;;;16.90;9.82;;;;;;;1.00;71.48;95751.16;5104667;28;20046;-66
2022/11/27 00:12:05;;;;;;;20.73;11.07;;;;;;;1.02;71.17;95748.59;5096758;28;20036;-65
2022/11/27 00:14:31;;;;;;;18.35;10.68;;;;;;;0.99;71.27;95751.22;5113068;28;20031;-66
2022/11/27 00:16:58;;;;;;;20.08;11.07;;;;;;;0.91;71.52;95751.47;5097050;28;20421;-66
2022/11/27 00:19:24;;;;;;;18.95;11.13;;;;;;;0.98;70.94;95740.16;5093532;28;20027;-66
2022/11/27 00:21:49;;;;;;;17.17;10.48;;;;;;;1.03;70.67;95743.44;5107137;28;20478;-66
2022/11/27 00:24:15;;;;;;;16.83;10.30;;;;;;;0.95;71.24;95754.75;5087452;28;20031;-66
2022/11/27 00:26:40;;;;;;;18.42;10.77;;;;;;;0.95;71.39;95749.63;5108598;28;20024;-66
2022/11/27 00:29:06;;;;;;;17.27;9.95;;;;;;;0.92;71.20;95744.63;5106317;28;20023;-66
2022/11/27 00:31:32;;;;;;;17.88;10.15;;;;;;;0.80;71.94;95754.34;5094691;28;20031;-66
2022/11/27 00:34:03;;;;;;;15.77;9.95;;;;;;;0.87;72.04;95752.44;5096277;28;20035;-66
2022/11/27 00:36:29;;;;;;;17.73;9.98;;;;;;;0.86;72.15;95754.19;5094118;28;20035;-66
2022/11/27 00:38:55;;;;;;;16.00;9.35;;;;;;;0.89;72.32;95753.22;5091157;28;20387;-65
2022/11/27 00:41:22;;;;;;;16.10;9.35;;;;;;;0.88;71.76;95749.81;5106866;28;20102;-66
2022/11/27 00:43:47;;;;;;;13.07;8.20;;;;;;;0.99;72.18;95753.78;5087491;28;20068;-66
2022/11/27 00:46:14;;;;;;;14.68;8.25;;;;;;;1.01;72.17;95752.03;5088009;28;20142;-65
2022/11/27 00:48:39;;;;;;;16.73;9.40;;;;;;;0.93;72.34;95754.81;5110507;28;20034;-65
2022/11/27 00:51:06;;;;;;;14.90;9.02;;;;;;;1.03;72.51;95757.91;5101506;28;20024;-65
2022/11/27 00:53:32;;;;;;;14.45;9.15;;;;;;;1.01;72.30;95754.59;5088293;28;20490;-66
2022/11/27 00:55:57;;;;;;;15.88;9.80;;;;;;;1.11;72.31;95756.84;5092061;28;20047;-66
2022/11/27 00:58:23;;;;;;;17.55;9.00;;;;;;;1.10;71.79;95759.44;5094296;28;20032;-65
2022/11/27 01:01:00;;;;;;;14.05;8.38;;;;;;;1.19;71.86;95755.75;5103616;28;20028;-65
2022/11/27 01:03:25;;;;;;;16.02;9.43;;;;;;;1.23;72.13;95753.03;5092148;28;20016;-65
2022/11/27 01:05:51;;;;;;;16.02;9.10;;;;;;;1.16;71.84;95743.88;5104791;28;20466;-65
2022/11/27 01:08:18;;;;;;;13.27;8.52;;;;;;;1.17;71.40;95744.69;5108022;28;20058;-65
2022/11/27 01:10:53;;;;;;;13.88;8.82;;;;;;;1.25;71.46;95742.75;5082053;28;20035;-66
2022/11/27 01:13:19;;;;;;;13.63;8.43;;;;;;;1.31;71.38;95737.44;5091599;28;20044;-65
2022/11/27 01:15:44;;;;;;;13.95;8.45;;;;;;;1.24;71.31;95736.78;5099120;28;20035;-66
2022/11/27 01:18:10;;;;;;;14.75;8.90;;;;;;;1.27;71.64;95739.25;5106523;28;20039;-65
2022/11/27 01:20:39;;;;;;;14.40;8.93;;;;;;;1.22;71.84;95732.59;5108128;28;20035;-65
2022/11/27 01:23:05;;;;;;;15.75;8.20;;;;;;;1.33;71.17;95735.66;5080930;28;20059;-66
2022/11/27 01:25:32;;;;;;;13.80;8.55;;;;;;;1.32;71.28;95745.06;5092900;28;20036;-65
2022/11/27 01:27:58;;;;;;;34.97;18.90;;;;;;;1.02;71.65;95738.34;5101741;28;20024;-66
2022/11/27 01:30:23;;;;;;;32.72;16.75;;;;;;;0.93;72.12;95726.69;5091708;28;20043;-66
2022/11/27 01:32:48;;;;;;;23.63;15.52;;;;;;;1.11;71.29;95738.06;5102103;28;20027;-65
2022/11/27 01:35:14;;;;;;;26.15;15.80;;;;;;;1.18;71.51;95741.28;5111979;28;20032;-66
2022/11/27 01:37:39;;;;;;;30.02;16.20;;;;;;;1.27;71.35;95746.94;5111891;28;20032;-66
2022/11/27 01:40:05;;;;;;;26.20;15.70;;;;;;;1.39;70.72;95737.19;5111843;28;20032;-66
2022/11/27 01:42:31;;;;;;;29.05;16.10;;;;;;;1.41;70.86;95740.53;5109690;28;20082;-67
2022/11/27 01:44:56;;;;;;;28.75;17.88;;;;;;;1.42;70.65;95734.53;5098577;28;20494;-66
2022/11/27 01:47:59;;;;;;;30.33;19.02;;;;;;;1.35;70.53;95723.66;5104139;28;20402;-66
2022/11/27 01:50:30;;;;;;;31.88;17.40;;;;;;;1.31;70.98;95733.16;5108301;28;20122;-66
2022/11/27 01:52:58;;;;;;;29.80;17.98;;;;;;;1.50;70.51;95737.66;5090837;28;20027;-66
2022/11/27 01:55:36;;;;;;;28.77;16.90;;;;;;;1.51;70.50;95721.44;5101189;28;20067;-66
2022/11/27 01:58:13;;;;;;;38.40;19.15;;;;;;;1.58;70.01;95715.22;5073332;28;20533;-66
2022/11/27 02:00:38;;;;;;;38.83;20.98;;;;;;;1.66;69.04;95728.59;5090791;28;20513;-66
2022/11/27 02:03:04;;;;;;;36.55;19.63;;;;;;;1.58;69.49;95724.63;5079980;28;20040;-66
2022/11/27 02:05:30;;;;;;;39.03;22.52;;;;;;;1.61;69.05;95725.34;5082384;28;20036;-66
2022/11/27 02:07:56;;;;;;;45.72;23.92;;;;;;;1.60;69.03;95723.69;5090405;28;20078;-66
2022/11/27 02:10:26;;;;;;;45.60;23.85;;;;;;;1.53;69.43;95729.88;5107506;28;20221;-66
2022/11/27 02:13:05;;;;;;;45.17;24.80;;;;;;;1.54;69.33;95734.97;5105082;28;20044;-66
2022/11/27 02:15:39;;;;;;;37.22;21.13;;;;;;;1.42;70.08;95740.50;5074257;28;20036;-66
2022/11/27 02:18:11;;;;;;;43.55;23.27;;;;;;;1.30;70.09;95741.72;5092009;28;20069;-66
2022/11/27 02:20:45;;;;;;;;;;;;;;;1.23;70.83;95735.13;5108763;28;20101;-66
2022/11/27 02:23:32;;;;;;;34.83;19.30;;;;;;;1.21;70.52;95733.50;5108498;28;19916;-66
2022/11/27 02:26:00;;;;;;;40.70;21.90;;;;;;;1.21;71.06;95736.88;5091028;28;20047;-65
2022/11/27 02:28:52;;;;;;;38.08;20.60;;;;;;;1.21;70.70;95733.50;5097142;28;20489;-65
2022/11/27 02:31:24;;;;;;;37.85;21.02;;;;;;;1.21;70.70;95743.75;5102608;28;20066;-66
2022/11/27 02:33:52;;;;;;;39.42;22.00;;;;;;;1.33;70.88;95736.50;5072181;28;20085;-65
2022/11/27 02:36:23;;;;;;;35.67;20.40;;;;;;;1.42;70.72;95729.41;5110479;28;20097;-66
2022/11/27 02:39:10;;;;;;;36.50;19.58;;;;;;;1.46;71.19;95739.50;5071231;28;20115;-66
2022/11/27 02:41:58;;;;;;;35.63;20.73;;;;;;;1.52;70.45;95738.47;5093789;28;20036;-66
2022/11/27 02:44:25;;;;;;;38.83;22.45;;;;;;;1.41;70.43;95737.97;5076522;28;20521;-66
2022/11/27 02:46:50;;;;;;;32.83;20.30;;;;;;;1.37;71.05;95741.53;5093066;28;20077;-66
2022/11/27 02:49:17;;;;;;;40.50;22.48;;;;;;;1.38;70.82;95735.53;5111509;28;20405;-66
2022/11/27 02:51:46;;;;;;;39.13;22.70;;;;;;;1.38;70.80;95738.09;5084423;28;20043;-66
2022/11/27 02:54:14;;;;;;;40.08;24.05;;;;;;;1.32;70.90;95736.56;5113248;28;20094;-66
2022/11/27 02:56:39;;;;;;;39.05;23.95;;;;;;;1.21;70.80;95731.78;5085211;28;20115;-66
2022/11/27 02:59:06;;;;;;;41.40;22.98;;;;;;;1.02;71.31;95728.09;5075556;28;20019;-66
2022/11/27 03:01:33;;;;;;;37.55;22.13;;;;;;;1.06;71.04;95737.38;5077298;28;20131;-66
2022/11/27 03:03:59;;;;;;;34.15;21.27;;;;;;;1.00;70.97;95737.53;5076083;28;20097;-66
2022/11/27 03:06:27;;;;;;;35.10;21.00;;;;;;;0.96;71.31;95741.94;5086920;28;20485;-66
2022/11/27 03:09:10;;;;;;;32.90;19.23;;;;;;;0.86;71.91;95735.41;5079113;28;20024;-66
2022/11/27 03:11:35;;;;;;;37.28;20.92;;;;;;;0.77;71.37;95733.97;5095144;28;20062;-66
2022/11/27 03:14:03;;;;;;;33.00;19.35;;;;;;;0.79;71.59;95747.56;5112450;28;20031;-66
2022/11/27 03:16:38;;;;;;;31.95;19.33;;;;;;;0.92;71.72;95744.63;5105070;28;20036;-66
2022/11/27 03:19:12;;;;;;;34.78;19.90;;;;;;;0.87;71.45;95744.78;5112736;28;20524;-66
2022/11/27 03:21:47;;;;;;;30.30;18.02;;;;;;;0.80;71.54;95746.66;5100441;28;20067;-66
2022/11/27 03:24:12;;;;;;;35.58;19.05;;;;;;;0.79;71.41;95747.56;5100756;28;20019;-66
2022/11/27 03:26:38;;;;;;;32.03;19.38;;;;;;;0.62;71.60;95737.81;5103368;28;20652;-66
2022/11/27 03:29:11;;;;;;;29.70;17.15;;;;;;;0.59;71.98;95749.88;5092966;28;20051;-66
2022/11/27 03:31:37;;;;;;;32.08;17.30;;;;;;;0.58;72.46;95749.00;5105193;28;20406;-66
2022/11/27 03:34:03;;;;;;;32.00;17.58;;;;;;;0.41;72.66;95754.59;5110946;28;20055;-66
2022/11/27 03:36:28;;;;;;;23.75;14.73;;;;;;;0.38;72.26;95739.34;5112834;28;20036;-66
2022/11/27 03:38:54;;;;;;;21.70;13.32;;;;;;;0.44;72.11;95748.56;5078654;28;20036;-66
2022/11/27 03:41:39;;;;;;;21.73;13.02;;;;;;;0.51;72.12;95747.53;5099577;28;20032;-66
2022/11/27 03:44:26;;;;;;;22.00;13.35;;;;;;;0.49;72.15;95746.72;5112311;28;20050;-66
2022/11/27 03:47:28;;;;;;;23.58;13.77;;;;;;;0.49;73.27;95748.44;5100276;28;20031;-66
2022/11/27 03:49:56;;;;;;;23.15;13.90;;;;;;;0.44;73.33;95744.28;5093489;28;20048;-66
2022/11/27 03:53:06;;;;;;;28.92;18.13;;;;;;;0.44;73.82;95736.63;5093540;28;20030;-66
2022/11/27 03:55:41;;;;;;;29.45;17.08;;;;;;;0.41;73.74;95739.25;5093564;28;20082;-66
2022/11/27 03:58:19;;;;;;;30.45;18.70;;;;;;;0.15;74.24;95736.63;5105614;28;20058;-66
2022/11/27 04:00:45;;;;;;;29.92;18.33;;;;;;;0.24;75.03;95755.97;5079878;28;20032;-66
2022/11/27 04:03:11;;;;;;;27.50;16.63;;;;;;;0.42;73.94;95747.78;5083983;28;20107;-66
2022/11/27 04:05:37;;;;;;;29.02;16.00;;;;;;;0.62;73.49;95732.72;5111181;28;20043;-66
2022/11/27 04:08:02;;;;;;;22.08;14.18;;;;;;;0.55;74.00;95730.38;5113858;28;20028;-66
2022/11/27 04:10:28;;;;;;;21.80;13.23;;;;;;;0.41;74.11;95736.72;5094627;28;20097;-66
2022/11/27 04:12:53;;;;;;;25.10;14.70;;;;;;;0.35;74.80;95730.94;5105091;28;20052;-66
2022/11/27 04:15:19;;;;;;;22.58;12.95;;;;;;;0.44;74.02;95728.94;5093269;28;20391;-66
2022/11/27 04:17:44;;;;;;;20.60;13.13;;;;;;;0.52;74.26;95745.81;5110867;28;20515;-65
2022/11/27 04:20:13;;;;;;;23.60;13.90;;;;;;;0.54;74.38;95744.03;5091478;28;20043;-66
2022/11/27 04:22:39;;;;;;;21.95;12.77;;;;;;;0.60;73.97;95733.63;5091617;28;20032;-66
2022/11/27 04:25:05;;;;;;;18.90;12.63;;;;;;;0.64;73.99;95736.06;5093865;27;20127;-66
2022/11/27 04:27:30;;;;;;;21.90;13.13;;;;;;;0.68;73.95;95731.69;5098842;28;20053;-65
2022/11/27 04:29:56;;;;;;;22.30;13.27;;;;;;;0.72;73.95;95725.59;5112300;28;20088;-66
2022/11/27 04:32:21;;;;;;;19.27;12.82;;;;;;;0.74;73.43;95723.81;5109141;28;20038;-66
2022/11/27 04:34:47;;;;;;;20.08;12.30;;;;;;;0.75;74.04;95728.06;5105812;28;20039;-66
2022/11/27 04:37:12;;;;;;;22.90;13.20;;;;;;;0.82;73.63;95724.44;5083195;28;20038;-66
2022/11/27 04:39:38;;;;;;;17.63;11.40;;;;;;;0.80;73.96;95736.44;5099267;28;20036;-66
2022/11/27 04:42:03;;;;;;;19.35;11.70;;;;;;;0.85;73.42;95747.38;5101765;28;20040;-66
2022/11/27 04:44:28;;;;;;;22.85;13.55;;;;;;;0.91;73.55;95753.19;5090863;28;20024;-66
2022/11/27 04:46:54;;;;;;;23.30;13.32;;;;;;;0.90;73.98;95754.91;5090929;28;20028;-66
2022/11/27 04:49:19;;;;;;;25.90;14.82;;;;;;;0.91;74.21;95748.06;5090862;28;20482;-66
2022/11/27 04:51:45;;;;;;;23.98;14.07;;;;;;;0.93;74.10;95736.06;5101565;28;20504;-66
2022/11/27 04:54:11;;;;;;;25.98;15.05;;;;;;;1.00;74.17;95740.09;5110333;28;20505;-66
2022/11/27 04:56:36;;;;;;;25.77;14.60;;;;;;;1.07;73.55;95742.44;5095449;28;20039;-66
2022/11/27 04:59:02;;;;;;;25.73;15.40;;;;;;;1.17;72.84;95753.25;5082052;28;20092;-65
2022/11/27 05:01:28;;;;;;;27.88;15.95;;;;;;;1.24;72.83;95752.16;5107245;28;20482;-66
2022/11/27 05:03:53;;;;;;;26.70;15.45;;;;;;;1.07;73.61;95750.13;5108504;27;20031;-66
2022/11/27 05:06:21;;;;;;;31.55;18.77;;;;;;;1.00;74.17;95743.50;5106776;28;20043;-66
2022/11/27 05:08:46;;;;;;;39.92;21.58;;;;;;;1.13;73.41;95743.97;5107106;27;20473;-66
2022/11/27 05:11:13;;;;;;;38.60;22.25;;;;;;;1.08;73.83;95740.72;5103558;27;20046;-67
2022/11/27 05:13:39;;;;;;;36.95;22.67;;;;;;;1.12;73.91;95739.75;5105363;27;20041;-67
2022/11/27 05:16:05;;;;;;;32.58;18.95;;;;;;;1.14;74.18;95740.50;5109924;27;20032;-67
2022/11/27 05:18:30;;;;;;;34.78;18.48;;;;;;;1.11;73.27;95741.47;5105009;27;20031;-67
2022/11/27 05:21:04;;;;;;;31.00;18.30;;;;;;;1.01;73.30;95754.59;5108652;27;20037;-67
2022/11/27 05:23:29;;;;;;;34.33;20.38;;;;;;;0.87;73.94;95755.00;5090633;28;20030;-67
2022/11/27 05:25:55;;;;;;;35.28;17.50;;;;;;;0.90;74.16;95754.91;5104853;27;20031;-66
2022/11/27 05:28:21;;;;;;;31.73;18.08;;;;;;;1.01;73.39;95734.97;5100174;27;20032;-66
2022/11/27 05:30:46;;;;;;;32.75;16.58;;;;;;;1.05;73.44;95756.16;5084546;28;20200;-67
2022/11/27 05:33:12;;;;;;;32.33;17.30;;;;;;;0.97;73.86;95758.13;5097725;27;20023;-66
2022/11/27 05:35:38;;;;;;;27.80;16.63;;;;;;;0.97;74.06;95760.66;5107690;28;20055;-67
2022/11/27 05:38:03;;;;;;;29.77;16.83;;;;;;;0.99;73.65;95762.31;5107259;27;20059;-67
2022/11/27 05:40:28;;;;;;;30.67;16.70;;;;;;;1.05;73.54;95759.56;5102996;28;20059;-66
2022/11/27 05:42:54;;;;;;;27.23;16.30;;;;;;;1.00;73.89;95748.63;5086572;28;20032;-67
2022/11/27 05:45:19;;;;;;;30.90;17.83;;;;;;;0.93;74.44;95761.66;5100575;28;20039;-67
2022/11/27 05:47:45;;;;;;;31.52;17.55;;;;;;;0.94;74.33;95766.72;5102508;28;20092;-66
2022/11/27 05:50:10;;;;;;;33.35;17.80;;;;;;;0.97;74.56;95778.59;5106934;28;20035;-66
2022/11/27 05:52:36;;;;;;;35.33;18.67;;;;;;;0.94;74.15;95782.06;5105567;28;20031;-66
2022/11/27 05:55:01;;;;;;;31.73;18.27;;;;;;;0.97;74.90;95769.19;5106918;28;20047;-66
2022/11/27 05:57:27;;;;;;;36.00;19.27;;;;;;;1.07;75.13;95769.75;5109284;27;20026;-66
2022/11/27 05:59:52;;;;;;;34.20;19.33;;;;;;;1.05;74.25;95763.84;5105897;28;20458;-66
2022/11/27 06:02:18;;;;;;;33.65;19.17;;;;;;;1.03;74.85;95763.91;5104725;28;20043;-67
2022/11/27 06:04:43;;;;;;;41.92;20.98;;;;;;;1.04;74.61;95770.69;5085139;28;20036;-67
2022/11/27 06:07:09;;;;;;;39.05;19.88;;;;;;;1.07;75.22;95774.88;5107433;28;20024;-66
2022/11/27 06:09:36;;;;;;;38.83;20.55;;;;;;;1.09;74.86;95784.19;5106723;28;20032;-67
2022/11/27 06:12:02;;;;;;;37.22;20.20;;;;;;;1.15;74.77;95779.78;5103371;28;20462;-66
2022/11/27 06:14:28;;;;;;;36.83;20.25;;;;;;;1.19;74.77;95776.22;5071996;28;20088;-68
2022/11/27 06:16:53;;;;;;;39.45;20.45;;;;;;;1.25;74.99;95774.28;5100943;28;20031;-67
2022/11/27 06:19:19;;;;;;;58.17;32.92;;;;;;;1.32;74.43;95769.84;5102003;28;20452;-67
2022/11/27 06:21:45;;;;;;;58.97;35.97;;;;;;;1.52;73.03;95782.00;5086405;28;20035;-67
2022/11/27 06:24:10;;;;;;;58.05;35.58;;;;;;;1.52;73.18;95784.56;5102159;28;20036;-67
2022/11/27 06:26:36;;;;;;;60.90;34.13;;;;;;;1.56;72.84;95788.69;5100398;28;20040;-67
2022/11/27 06:29:02;;;;;;;54.20;33.58;;;;;;;1.51;72.97;95791.41;5097065;28;20467;-66
2022/11/27 06:31:29;;;;;;;48.03;29.88;;;;;;;1.65;72.35;95783.28;5084299;28;20040;-66
2022/11/27 06:33:55;;;;;;;44.90;28.48;;;;;;;1.52;72.55;95772.59;5102155;28;20492;-66
2022/11/27 06:36:21;;;;;;;48.55;29.10;;;;;;;1.73;72.12;95777.94;5079759;28;20032;-66
2022/11/27 06:38:47;;;;;;;48.05;28.58;;;;;;;1.77;71.68;95785.44;5097433;28;20057;-66
2022/11/27 06:41:16;;;;;;;46.85;26.48;;;;;;;1.60;72.08;95768.97;5100397;28;20027;-66
2022/11/27 06:43:42;;;;;;;53.55;28.00;;;;;;;1.62;72.29;95788.50;5085325;28;20032;-66
2022/11/27 06:46:10;;;;;;;56.45;30.33;;;;;;;1.77;71.87;95788.00;5098606;28;20046;-66
2022/11/27 06:48:35;;;;;;;45.35;26.90;;;;;;;1.74;71.54;95785.53;5092760;28;20046;-66
2022/11/27 06:51:02;;;;;;;45.75;27.65;;;;;;;1.84;71.31;95792.91;5099764;28;20048;-66
2022/11/27 06:53:30;;;;;;;44.08;26.73;;;;;;;1.88;71.10;95789.38;5100442;28;20102;-66
2022/11/27 06:55:56;;;;;;;47.00;27.25;;;;;;;1.66;71.22;95759.34;5099514;28;20036;-66
2022/11/27 06:58:22;;;;;;;56.17;31.80;;;;;;;1.85;71.50;95784.38;5101043;28;20075;-66
2022/11/27 07:00:47;;;;;;;50.15;31.35;;;;;;;1.88;71.65;95799.63;5101330;28;20417;-66
2022/11/27 07:03:12;;;;;;;48.83;27.35;;;;;;;1.86;71.46;95786.84;5100329;28;20102;-66
2022/11/27 07:05:38;;;;;;;69.40;38.78;;;;;;;1.95;71.41;95790.84;5086047;28;20474;-66
2022/11/27 07:08:04;;;;;;;57.15;32.67;;;;;;;1.90;71.26;95785.88;5104552;28;20549;-66
2022/11/27 07:10:32;;;;;;;58.13;32.53;;;;;;;1.95;70.99;95778.03;5087447;28;20035;-66
2022/11/27 07:12:58;;;;;;;57.17;34.55;;;;;;;2.01;70.28;95772.72;5102926;28;20036;-66
2022/11/27 07:15:23;;;;;;;63.47;35.90;;;;;;;2.04;71.05;95780.28;5104948;28;20043;-66
2022/11/27 07:17:49;;;;;;;71.25;41.75;;;;;;;2.03;70.94;95772.66;5104118;28;20039;-67
2022/11/27 07:20:14;;;;;;;67.32;41.45;;;;;;;2.07;70.31;95780.19;5091125;28;20558;-66
2022/11/27 07:22:40;;;;;;;58.67;34.88;;;;;;;2.12;69.74;95772.34;5109565;27;20517;-65
2022/11/27 07:25:05;;;;;;;72.25;36.83;;;;;;;1.93;69.98;95752.47;5110587;28;20069;-65
2022/11/27 07:27:31;;;;;;;52.70;29.20;;;;;;;2.20;69.49;95772.88;5109854;27;20019;-66
2022/11/27 07:29:56;;;;;;;51.17;29.67;;;;;;;2.16;70.33;95771.34;5108550;28;20386;-66
2022/11/27 07:32:22;;;;;;;46.08;26.92;;;;;;;2.09;70.70;95768.16;5090977;28;20460;-67
2022/11/27 07:34:47;;;;;;;54.40;29.33;;;;;;;2.12;70.86;95775.75;5106028;28;20027;-66
2022/11/27 07:37:12;;;;;;;51.47;30.17;;;;;;;2.13;70.94;95781.69;5109740;27;20020;-67
2022/11/27 07:39:38;;;;;;;67.03;35.28;;;;;;;2.16;70.46;95781.59;5112289;27;20088;-66
2022/11/27 07:42:03;;;;;;;67.38;35.67;;;;;;;2.11;70.72;95780.91;5108815;28;20031;-66
2022/11/27 07:44:29;;;;;;;62.80;35.65;;;;;;;2.15;70.87;95770.50;5110206;27;20576;-66
2022/11/27 07:46:54;;;;;;;69.05;38.00;;;;;;;2.03;70.83;95770.06;5109178;28;20034;-67
2022/11/27 07:49:20;;;;;;;64.65;35.03;;;;;;;1.98;71.03;95775.38;5110054;27;20034;-66
2022/11/27 07:51:45;;;;;;;57.42;32.42;;;;;;;2.07;70.61;95775.06;5092045;28;20024;-65
2022/11/27 07:54:10;;;;;;;62.13;36.90;;;;;;;1.97;70.72;95769.41;5115315;27;20105;-66
2022/11/27 07:56:36;;;;;;;65.32;35.42;;;;;;;1.83;71.78;95753.66;5091223;28;20048;-66
2022/11/27 07:59:01;;;;;;;57.05;31.90;;;;;;;1.88;71.90;95769.72;5091652;28;20027;-66
2022/11/27 08:01:27;;;;;;;64.97;36.10;;;;;;;2.05;72.00;95774.25;5089612;28;20040;-67
2022/11/27 08:03:52;;;;;;;62.88;34.80;;;;;;;2.20;71.03;95772.88;5095731;28;20023;-67
2022/11/27 08:06:20;;;;;;;76.63;38.80;;;;;;;2.08;70.49;95743.41;5109681;28;20477;-66
2022/11/27 08:08:45;;;;;;;69.95;38.40;;;;;;;2.43;69.90;95772.94;5096166;27;20098;-66
2022/11/27 08:11:38;;;;;;;66.88;37.50;;;;;;;2.34;69.74;95749.34;5111036;28;20092;-67
2022/11/27 08:14:07;;;;;;;80.68;41.67;;;;;;;2.45;70.34;95762.59;5106262;27;20047;-66
2022/11/27 08:16:33;;;;;;;76.70;39.40;;;;;;;2.08;70.84;95725.44;5108461;28;20023;-65
2022/11/27 08:18:59;;;;;;;66.93;36.70;;;;;;;2.52;70.65;95771.78;5086651;28;20040;-65
2022/11/27 08:21:25;;;;;;;66.80;37.42;;;;;;;2.51;70.82;95764.13;5103061;28;20042;-66
2022/11/27 08:23:50;;;;;;;76.95;43.28;;;;;;;2.53;71.10;95772.59;5088795;28;20075;-65
2022/11/27 08:26:16;;;;;;;77.28;40.83;;;;;;;2.58;71.15;95771.53;5103099;28;20031;-66
2022/11/27 08:28:41;;;;;;;62.60;35.53;;;;;;;2.60;70.00;95764.63;5107812;27;20016;-66
2022/11/27 08:31:09;;;;;;;67.90;36.08;;;;;;;2.66;70.33;95777.22;5085909;28;20607;-66
2022/11/27 08:33:35;;;;;;;63.63;37.03;;;;;;;2.67;70.29;95776.34;5110404;27;20028;-66
2022/11/27 08:36:00;;;;;;;62.83;33.50;;;;;;;2.77;70.19;95770.88;5089660;28;20046;-66
2022/11/27 08:38:26;;;;;;;49.80;28.70;;;;;;;2.76;70.04;95759.78;5106597;27;20027;-66
2022/11/27 08:40:59;;;;;;;52.60;28.95;;;;;;;2.82;69.95;95761.28;5089139;28;20039;-66
2022/11/27 08:43:25;;;;;;;48.58;27.35;;;;;;;2.99;68.93;95766.63;5110998;27;20030;-65
2022/11/27 08:45:51;;;;;;;46.08;27.45;;;;;;;2.99;68.95;95758.91;5107494;28;20031;-66
2022/11/27 08:48:16;;;;;;;45.72;28.67;;;;;;;3.02;69.43;95760.53;5089011;28;20032;-65
2022/11/27 08:50:42;;;;;;;48.53;30.40;;;;;;;2.97;69.52;95759.84;5109544;28;20110;-66
2022/11/27 08:53:08;;;;;;;55.35;33.22;;;;;;;3.13;69.37;95759.22;5108453;28;20096;-65
2022/11/27 08:55:33;;;;;;;60.67;34.47;;;;;;;3.18;69.28;95751.34;5106722;28;20636;-66
2022/11/27 08:57:58;;;;;;;55.10;32.25;;;;;;;3.03;69.59;95752.75;5109068;27;20026;-66
2022/11/27 09:00:24;;;;;;;49.42;31.23;;;;;;;3.11;70.13;95748.16;5107502;28;20525;-66
2022/11/27 09:02:49;;;;;;;54.50;34.17;;;;;;;3.25;69.68;95751.94;5090055;28;20103;-66
2022/11/27 09:05:15;;;;;;;56.67;35.45;;;;;;;3.34;69.40;95743.84;5107820;28;20035;-66
2022/11/27 09:07:40;;;;;;;49.80;30.73;;;;;;;3.43;68.91;95734.97;5106563;28;20032;-66
2022/11/27 09:10:07;;;;;;;54.63;33.15;;;;;;;3.40;69.00;95729.94;5107368;28;20394;-66
2022/11/27 09:12:32;;;;;;;62.47;36.33;;;;;;;3.46;68.89;95737.41;5090219;28;20130;-66
2022/11/27 09:14:58;;;;;;;51.17;32.05;;;;;;;3.49;69.13;95740.69;5107940;28;20051;-65
2022/11/27 09:17:23;;;;;;;59.08;34.47;;;;;;;3.43;69.59;95730.66;5109634;27;20032;-66
2022/11/27 09:19:49;;;;;;;54.30;33.78;;;;;;;3.65;68.62;95740.91;5105888;28;20035;-66
2022/11/27 09:22:14;;;;;;;50.85;30.63;;;;;;;3.71;68.20;95743.22;5109081;27;20032;-66
2022/11/27 09:24:40;;;;;;;57.08;32.33;;;;;;;3.79;68.12;95738.59;5110604;27;20032;-66
2022/11/27 09:27:05;;;;;;;50.88;31.65;;;;;;;3.83;67.98;95735.91;5104508;28;20481;-65
2022/11/27 09:29:33;;;;;;;57.58;33.08;;;;;;;3.67;68.17;95731.38;5105401;27;20023;-65
2022/11/27 09:31:58;;;;;;;52.75;30.55;;;;;;;3.74;68.74;95729.41;5090367;28;20540;-66
2022/11/27 09:34:24;;;;;;;52.95;32.65;;;;;;;3.95;67.19;95717.38;5071977;28;20039;-65
2022/11/27 09:36:49;;;;;;;54.83;31.27;;;;;;;3.96;67.46;95713.94;5108201;28;20028;-66
2022/11/27 09:39:15;;;;;;;73.68;42.20;;;;;;;3.98;67.68;95707.81;5103959;27;20031;-66
2022/11/27 09:41:54;;;;;;;68.43;37.47;;;;;;;4.03;67.76;95705.03;5108441;28;20477;-67
2022/11/27 09:44:28;;;;;;;63.17;34.67;;;;;;;4.24;67.35;95706.69;5080540;28;20020;-66
2022/11/27 09:46:55;;;;;;;51.22;33.05;;;;;;;4.38;66.97;95708.66;5088906;28;20035;-66
2022/11/27 09:49:34;;;;;;;64.22;38.58;;;;;;;4.33;67.44;95697.72;5087717;27;20204;-66
2022/11/27 09:52:04;;;;;;;68.82;36.28;;;;;;;4.48;67.58;95701.34;5081507;28;20039;-67
2022/11/27 09:54:35;;;;;;;54.17;32.80;;;;;;;4.50;67.59;95693.56;5090549;27;20096;-66
2022/11/27 09:57:00;;;;;;;48.42;29.90;;;;;;;4.56;66.67;95673.53;5072971;28;20058;-66
2022/11/27 09:59:36;;;;;;;54.10;30.35;;;;;;;4.58;66.72;95669.16;5083008;28;20114;-66
2022/11/27 10:02:01;;;;;;;51.80;30.15;;;;;;;4.81;65.79;95687.84;5101882;28;20573;-66
2022/11/27 10:04:26;;;;;;;52.95;31.50;;;;;;;4.79;66.08;95675.06;5103424;28;20028;-65
2022/11/27 10:07:13;;;;;;;49.08;28.73;;;;;;;4.86;66.22;95671.28;5082547;28;20031;-66
2022/11/27 10:09:59;;;;;;;47.05;28.42;;;;;;;4.89;65.79;95670.31;5090417;28;20032;-66
2022/11/27 10:12:24;;;;;;;46.25;28.40;;;;;;;4.99;65.55;95665.56;5108221;27;20051;-67
2022/11/27 10:15:10;;;;;;;45.75;28.02;;;;;;;4.84;66.39;95660.22;5111730;27;20035;-66
2022/11/27 10:17:56;;;;;;;37.40;22.25;;;;;;;4.95;64.97;95667.44;5094204;27;20034;-66
2022/11/27 10:20:36;;;;;;;36.25;23.17;;;;;;;4.98;64.76;95635.56;5086280;28;20437;-66
2022/11/27 10:23:27;;;;;;;42.53;25.83;;;;;;;5.07;64.85;95654.00;5105448;28;20501;-68
2022/11/27 10:25:53;;;;;;;;;;;;;;;5.27;63.73;95660.75;5103084;28;20039;-68
2022/11/27 10:28:56;;;;;;;36.50;22.58;;;;;;;5.26;63.60;95646.19;5090635;28;19935;-68
2022/11/27 10:31:34;;;;;;;35.97;21.90;;;;;;;5.30;62.34;95632.28;5088745;28;20115;-66
2022/11/27 10:34:04;;;;;;;125.88;50.15;;;;;;;5.28;62.45;95631.50;5097807;28;20066;-66
2022/11/27 10:36:34;;;;;;;37.78;19.85;;;;;;;5.41;62.05;95636.06;5072766;28;20040;-67
2022/11/27 10:39:00;;;;;;;26.20;14.10;;;;;;;4.87;62.56;95636.91;5086456;28;20111;-67
2022/11/27 10:41:51;;;;;;;29.17;18.55;;;;;;;5.01;63.11;95630.25;5096010;28;20040;-68
2022/11/27 10:44:25;;;;;;;32.37;19.13;;;;;;;5.20;63.05;95622.50;5077465;28;20020;-67
2022/11/27 10:46:51;;;;;;;31.60;20.00;;;;;;;5.34;62.73;95632.94;5083440;28;20278;-67
2022/11/27 10:49:16;;;;;;;29.27;18.67;;;;;;;5.32;63.01;95627.88;5093284;28;20051;-67
2022/11/27 10:51:42;;;;;;;35.60;21.08;;;;;;;5.34;62.92;95632.94;5098273;28;20498;-66
2022/11/27 10:54:11;;;;;;;33.72;20.40;;;;;;;5.48;61.66;95611.66;5099086;28;20513;-67
2022/11/27 10:56:55;;;;;;;31.92;20.02;;;;;;;5.48;62.19;95617.63;5083518;28;20058;-66
2022/11/27 10:59:23;;;;;;;30.60;17.70;;;;;;;5.56;61.45;95599.22;5104228;28;20348;-67
2022/11/27 11:01:49;;;;;;;36.08;19.60;;;;;;;5.48;61.69;95615.06;5093731;28;20050;-67
2022/11/27 11:04:20;;;;;;;32.47;19.98;;;;;;;5.61;62.20;95612.72;5096804;28;20106;-67
2022/11/27 11:06:47;;;;;;;32.57;19.93;;;;;;;5.46;61.70;95604.00;5103319;28;20528;-66
2022/11/27 11:09:27;;;;;;;35.03;19.20;;;;;;;5.29;62.30;95615.16;5076295;28;20410;-66
2022/11/27 11:11:53;;;;;;;36.97;20.42;;;;;;;5.37;62.46;95614.75;5080913;28;20047;-67
2022/11/27 11:14:24;;;;;;;33.03;20.23;;;;;;;5.46;62.06;95608.31;5066983;27;20034;-67
2022/11/27 11:16:50;;;;;;;41.67;22.80;;;;;;;5.54;62.29;95606.19;5110646;28;20130;-66
2022/11/27 11:19:31;;;;;;;42.13;24.40;;;;;;;5.56;62.29;95599.22;5112550;27;20489;-66
2022/11/27 11:22:04;;;;;;;49.53;29.80;;;;;;;5.62;62.03;95598.06;5110424;27;20517;-66
2022/11/27 11:24:30;;;;;;;40.33;23.83;;;;;;;5.54;62.41;95590.72;5085102;27;20055;-67
2022/11/27 11:27:02;;;;;;;39.55;23.23;;;;;;;5.44;62.66;95582.63;5107906;28;20077;-67
2022/11/27 11:29:35;;;;;;;38.97;23.08;;;;;;;5.37;63.57;95592.38;5098246;27;20018;-66
2022/11/27 11:32:18;;;;;;;68.30;42.00;;;;;;;5.41;63.59;95590.50;5119420;27;20028;-66
2022/11/27 11:34:51;;;;;;;41.00;22.90;;;;;;;5.25;63.44;95590.44;5116803;27;20378;-67